Time;durP1;ratioP1;P1;durP2;ratioP2;P2;SDS_P1;SDS_P2;PMS_P1;PMS_P2;Temp;Humidity;BMP_temperature;BMP_pressure;BME280_temperature;BME280_humidity;BME280_pressure;Samples;Min_cycle;Max_cycle;Signal;HPM_P1;HPM_P2
2023/06/30 00:04:07;;;;;;;;;12.67;12.67;;;;;;;;6486754;46;8953;-55
2023/06/30 00:10:10;;;;;;;;;15.00;11.33;;;;;;;;6488184;31;8872;-53
2023/06/30 00:16:12;;;;;;;;;8.33;8.33;;;;;;;;6488070;39;9468;-52
2023/06/30 00:22:15;;;;;;;;;14.00;12.00;;;;;;;;6488654;46;8848;-53
2023/06/30 00:28:18;;;;;;;;;12.67;10.00;;;;;;;;6487349;46;8938;-53
2023/06/30 00:34:21;;;;;;;;;10.67;10.00;;;;;;;;6487674;39;9539;-54
2023/06/30 00:40:24;;;;;;;;;12.33;11.00;;;;;;;;6488109;31;8901;-55
2023/06/30 00:46:28;;;;;;;;;11.33;11.33;;;;;;;;6488783;31;8892;-54
2023/06/30 00:52:31;;;;;;;;;10.00;9.67;;;;;;;;6487869;46;8865;-53
2023/06/30 00:58:33;;;;;;;;;10.33;10.33;;;;;;;;6487321;39;9396;-54
2023/06/30 01:04:54;;;;;;;;;14.67;13.33;;;;;;;;6485642;46;8951;-55
2023/06/30 01:10:57;;;;;;;;;12.33;12.33;;;;;;;;6511735;36;8966;-54
2023/06/30 01:17:01;;;;;;;;;13.33;12.67;;;;;;;;6511829;31;9031;-54
2023/06/30 01:23:31;;;;;;;;;10.00;10.00;;;;;;;;6487492;39;9479;-54
2023/06/30 01:29:34;;;;;;;;;9.67;9.00;;;;;;;;6487048;31;8881;-54
2023/06/30 01:35:37;;;;;;;;;12.33;10.00;;;;;;;;6488048;39;9009;-53
2023/06/30 01:41:39;;;;;;;;;9.00;9.00;;;;;;;;6487496;39;8904;-54
2023/06/30 01:47:43;;;;;;;;;13.33;13.33;;;;;;;;6485761;47;8879;-54
2023/06/30 01:53:47;;;;;;;;;12.00;12.00;;;;;;;;6487299;31;8933;-54
2023/06/30 01:59:49;;;;;;;;;13.00;10.67;;;;;;;;6486160;39;8950;-53
2023/06/30 02:05:52;;;;;;;;;11.33;11.33;;;;;;;;6487807;31;8937;-53
2023/06/30 02:11:54;;;;;;;;;15.00;14.00;;;;;;;;6485221;47;8847;-53
2023/06/30 04:06:20;;;;;;;;;16.00;14.33;;;;;;;;6472067;39;8987;-53
2023/06/30 04:12:23;;;;;;;;;16.33;15.00;;;;;;;;6491713;39;8886;-55
2023/06/30 04:18:27;;;;;;;;;14.33;12.33;;;;;;;;6492683;39;8918;-56
2023/06/30 04:24:30;;;;;;;;;16.33;16.33;;;;;;;;6493033;46;8885;-53
2023/06/30 04:30:32;;;;;;;;;14.00;14.00;;;;;;;;6491263;39;8914;-62
2023/06/30 04:36:35;;;;;;;;;13.33;13.33;;;;;;;;6491889;39;9013;-52
2023/06/30 04:42:39;;;;;;;;;12.67;12.67;;;;;;;;6492060;31;8872;-57
2023/06/30 04:48:41;;;;;;;;;18.67;17.67;;;;;;;;6491884;31;8894;-54
2023/06/30 04:54:49;;;;;;;;;19.00;16.67;;;;;;;;6492440;31;8965;-53
2023/06/30 05:00:52;;;;;;;;;16.50;16.00;;;;;;;;6492289;31;8997;-56
2023/06/30 05:06:54;;;;;;;;;20.67;16.33;;;;;;;;6492219;31;9546;-55
2023/06/30 05:12:59;;;;;;;;;15.67;15.33;;;;;;;;6489960;46;8965;-56
2023/06/30 05:19:02;;;;;;;;;12.00;12.00;;;;;;;;6490124;46;8891;-54
2023/06/30 05:25:05;;;;;;;;;13.00;13.00;;;;;;;;6491913;46;8878;-57
2023/06/30 05:31:10;;;;;;;;;14.00;13.00;;;;;;;;6490614;46;8872;-56
2023/06/30 05:37:13;;;;;;;;;13.67;13.33;;;;;;;;6492021;46;8823;-56
2023/06/30 05:43:17;;;;;;;;;12.67;12.00;;;;;;;;6490585;39;8908;-57
2023/06/30 05:49:21;;;;;;;;;12.75;11.00;;;;;;;;6489756;31;8960;-56
2023/06/30 05:55:24;;;;;;;;;4.00;3.67;;;;;;;;6490682;31;8902;-55
2023/06/30 06:01:27;;;;;;;;;9.75;9.75;;;;;;;;6489357;47;8976;-58
2023/06/30 06:07:32;;;;;;;;;15.67;13.67;;;;;;;;6489000;39;10055;-53
2023/06/30 06:13:38;;;;;;;;;15.75;14.25;;;;;;;;6489495;39;9543;-55
2023/06/30 06:19:41;;;;;;;;;9.75;9.75;;;;;;;;6486251;39;8864;-56
2023/06/30 06:25:43;;;;;;;;;12.25;10.75;;;;;;;;6490480;31;9031;-55
2023/06/30 06:31:49;;;;;;;;;9.25;7.75;;;;;;;;6488949;39;8883;-55
2023/06/30 06:37:53;;;;;;;;;7.50;7.50;;;;;;;;6488877;31;9173;-55
2023/06/30 06:43:55;;;;;;;;;8.00;7.25;;;;;;;;6487502;39;9374;-56
2023/06/30 06:50:00;;;;;;;;;7.00;7.00;;;;;;;;6488523;31;8882;-57
2023/06/30 06:56:05;;;;;;;;;7.75;6.75;;;;;;;;6488600;46;8883;-55
2023/06/30 07:02:07;;;;;;;;;8.25;7.25;;;;;;;;6488207;39;8925;-56
2023/06/30 07:08:11;;;;;;;;;8.75;8.75;;;;;;;;6486069;31;8876;-57
2023/06/30 07:14:20;;;;;;;;;7.50;7.50;;;;;;;;6486812;31;8898;-57
2023/06/30 07:20:23;;;;;;;;;6.00;5.00;;;;;;;;6489385;39;8887;-55
2023/06/30 07:26:26;;;;;;;;;6.25;4.75;;;;;;;;6489052;46;8862;-57
2023/06/30 07:32:36;;;;;;;;;6.00;6.00;;;;;;;;6488605;39;8903;-58
2023/06/30 07:38:38;;;;;;;;;9.50;9.50;;;;;;;;6487620;39;8965;-60
2023/06/30 07:44:42;;;;;;;;;6.00;5.75;;;;;;;;6487845;39;9019;-61
2023/06/30 07:50:45;;;;;;;;;7.25;7.25;;;;;;;;6487676;46;8914;-63
2023/06/30 07:57:09;;;;;;;;;6.25;6.25;;;;;;;;6488509;39;8895;-59
2023/06/30 08:03:12;;;;;;;;;7.75;7.75;;;;;;;;6487358;31;9090;-60
2023/06/30 08:09:15;;;;;;;;;8.00;7.00;;;;;;;;6488349;46;8897;-60
2023/06/30 08:15:19;;;;;;;;;7.00;7.00;;;;;;;;6488362;39;8888;-60
2023/06/30 08:21:23;;;;;;;;;6.00;6.00;;;;;;;;6488261;31;8869;-60
2023/06/30 08:27:26;;;;;;;;;6.25;6.25;;;;;;;;6488450;39;9832;-59
2023/06/30 08:33:29;;;;;;;;;5.50;5.50;;;;;;;;6487175;39;9483;-61
2023/06/30 08:39:37;;;;;;;;;6.00;6.00;;;;;;;;6488884;39;9451;-60
2023/06/30 08:45:43;;;;;;;;;6.00;6.00;;;;;;;;6488474;39;8873;-60
2023/06/30 08:51:47;;;;;;;;;7.25;6.00;;;;;;;;6488456;31;8843;-60
2023/06/30 08:57:51;;;;;;;;;7.00;7.00;;;;;;;;6486547;46;8837;-60
2023/06/30 09:03:54;;;;;;;;;7.75;7.00;;;;;;;;6486722;46;8939;-61
2023/06/30 09:10:01;;;;;;;;;5.50;5.50;;;;;;;;6488669;31;8952;-60
2023/06/30 09:16:10;;;;;;;;;7.50;7.00;;;;;;;;6486159;39;8923;-59
2023/06/30 09:22:14;;;;;;;;;7.00;5.00;;;;;;;;6488672;39;9509;-60
2023/06/30 09:28:37;;;;;;;;;8.00;7.50;;;;;;;;6487561;46;8914;-59
2023/06/30 09:34:40;;;;;;;;;9.00;9.00;;;;;;;;6486824;39;8932;-61
2023/06/30 09:40:47;;;;;;;;;6.00;5.75;;;;;;;;6485963;39;8892;-61
2023/06/30 09:46:53;;;;;;;;;15.75;12.50;;;;;;;;6486456;39;8841;-60
2023/06/30 09:52:56;;;;;;;;;5.50;5.50;;;;;;;;6487838;31;8884;-59
2023/06/30 09:58:58;;;;;;;;;6.75;6.75;;;;;;;;6487281;39;8861;-60
2023/06/30 10:05:03;;;;;;;;;5.75;5.50;;;;;;;;6487664;39;8994;-61
2023/06/30 10:11:07;;;;;;;;;4.50;4.50;;;;;;;;6487619;47;8888;-61
2023/06/30 10:17:11;;;;;;;;;9.00;6.25;;;;;;;;6487153;31;8899;-60
2023/06/30 10:23:13;;;;;;;;;9.50;8.25;;;;;;;;6488206;47;8911;-59
2023/06/30 10:29:16;;;;;;;;;7.25;6.25;;;;;;;;6486769;39;8914;-62
2023/06/30 10:35:21;;;;;;;;;7.00;7.00;;;;;;;;6486293;47;8986;-59
2023/06/30 10:41:24;;;;;;;;;5.00;4.75;;;;;;;;6486406;31;8942;-59
2023/06/30 10:47:29;;;;;;;;;9.25;8.00;;;;;;;;6486990;47;8905;-59
2023/06/30 10:53:34;;;;;;;;;5.50;5.50;;;;;;;;6486618;39;8843;-59
2023/06/30 10:59:48;;;;;;;;;6.00;6.00;;;;;;;;6487812;39;9004;-60
2023/06/30 11:05:51;;;;;;;;;6.25;6.25;;;;;;;;6489344;31;8986;-60
2023/06/30 11:11:53;;;;;;;;;12.00;11.00;;;;;;;;6488393;39;8880;-62
2023/06/30 11:18:01;;;;;;;;;7.00;7.00;;;;;;;;6488956;46;8884;-61
2023/06/30 11:24:14;;;;;;;;;8.00;8.00;;;;;;;;6489844;31;8904;-59
2023/06/30 11:30:18;;;;;;;;;8.75;8.75;;;;;;;;6487788;39;8880;-61
2023/06/30 11:36:30;;;;;;;;;6.25;6.25;;;;;;;;6488544;39;8900;-61
2023/06/30 11:42:39;;;;;;;;;10.00;8.25;;;;;;;;6488837;39;8888;-60
2023/06/30 11:48:42;;;;;;;;;7.00;7.00;;;;;;;;6489054;39;8901;-60
2023/06/30 11:54:45;;;;;;;;;8.25;6.75;;;;;;;;6488398;46;8879;-60
2023/06/30 12:00:48;;;;;;;;;10.00;9.25;;;;;;;;6488008;31;8889;-60
2023/06/30 12:06:54;;;;;;;;;8.00;8.00;;;;;;;;6488771;39;9606;-60
2023/06/30 12:13:01;;;;;;;;;7.50;7.50;;;;;;;;6487638;39;8916;-61
2023/06/30 12:19:06;;;;;;;;;9.50;9.50;;;;;;;;6488090;39;9609;-61
2023/06/30 12:25:13;;;;;;;;;7.00;7.00;;;;;;;;6487960;39;9536;-62
2023/06/30 12:31:16;;;;;;;;;6.00;6.00;;;;;;;;6487656;39;8875;-62
2023/06/30 12:37:19;;;;;;;;;5.75;5.75;;;;;;;;6487698;46;8936;-61
2023/06/30 12:43:27;;;;;;;;;7.25;7.25;;;;;;;;6487494;39;8922;-59
2023/06/30 12:49:32;;;;;;;;;4.00;4.00;;;;;;;;6489050;39;8908;-60
2023/06/30 12:55:36;;;;;;;;;8.75;8.75;;;;;;;;6488543;39;8906;-60
2023/06/30 13:01:39;;;;;;;;;4.75;4.75;;;;;;;;6488199;39;8916;-59
2023/06/30 13:07:42;;;;;;;;;7.00;6.50;;;;;;;;6488798;39;9022;-59
2023/06/30 13:13:46;;;;;;;;;8.50;8.50;;;;;;;;6488081;39;8913;-59
2023/06/30 13:19:50;;;;;;;;;5.00;5.00;;;;;;;;6486676;39;8904;-60
2023/06/30 13:25:56;;;;;;;;;7.00;6.25;;;;;;;;6487897;39;8964;-59
2023/06/30 13:31:58;;;;;;;;;7.67;7.67;;;;;;;;6486532;46;8887;-61
2023/06/30 13:38:00;;;;;;;;;5.75;5.75;;;;;;;;6487988;31;8881;-59
2023/06/30 13:44:04;;;;;;;;;8.75;8.00;;;;;;;;6487041;39;9503;-60
2023/06/30 13:50:06;;;;;;;;;7.00;7.00;;;;;;;;6485090;47;8881;-61
2023/06/30 13:56:09;;;;;;;;;7.50;7.50;;;;;;;;6486229;31;9006;-61
2023/06/30 14:02:12;;;;;;;;;6.50;6.50;;;;;;;;6486834;47;9010;-59
2023/06/30 14:08:14;;;;;;;;;3.00;3.00;;;;;;;;6488478;39;9545;-60
2023/06/30 14:14:17;;;;;;;;;7.25;7.25;;;;;;;;6488172;39;8841;-61
2023/06/30 14:20:19;;;;;;;;;7.25;7.25;;;;;;;;6488577;31;8888;-60
2023/06/30 14:26:25;;;;;;;;;6.00;6.00;;;;;;;;6487943;31;8913;-60
2023/06/30 14:32:27;;;;;;;;;7.50;7.50;;;;;;;;6488733;39;8848;-60
2023/06/30 14:38:29;;;;;;;;;5.25;5.25;;;;;;;;6490424;39;9933;-59
2023/06/30 14:44:32;;;;;;;;;6.25;6.25;;;;;;;;6489848;39;8887;-59
2023/06/30 14:50:36;;;;;;;;;10.00;8.50;;;;;;;;6489733;39;8912;-59
2023/06/30 14:56:40;;;;;;;;;6.75;6.75;;;;;;;;6490318;39;9522;-59
2023/06/30 15:02:44;;;;;;;;;5.75;5.75;;;;;;;;6490078;39;8925;-59
2023/06/30 15:08:47;;;;;;;;;8.75;8.75;;;;;;;;6489464;39;8844;-59
2023/06/30 15:14:50;;;;;;;;;11.00;9.75;;;;;;;;6489074;39;8902;-60
2023/06/30 15:20:53;;;;;;;;;8.25;8.25;;;;;;;;6488904;39;8896;-61
2023/06/30 15:26:56;;;;;;;;;7.25;7.25;;;;;;;;6488891;31;8912;-59
2023/06/30 15:32:58;;;;;;;;;9.25;9.25;;;;;;;;6488418;46;8875;-60
2023/06/30 15:39:05;;;;;;;;;8.00;8.00;;;;;;;;6489197;39;8908;-60
2023/06/30 15:45:09;;;;;;;;;11.00;10.00;;;;;;;;6487910;39;8856;-59
2023/06/30 15:51:12;;;;;;;;;8.75;8.75;;;;;;;;6486119;39;8896;-55
2023/06/30 15:57:15;;;;;;;;;9.50;9.50;;;;;;;;6487175;39;8938;-58
2023/06/30 16:03:18;;;;;;;;;8.25;7.50;;;;;;;;6488686;46;8932;-56
2023/06/30 16:09:20;;;;;;;;;5.25;5.25;;;;;;;;6489210;39;8946;-56
2023/06/30 16:15:22;;;;;;;;;9.25;9.25;;;;;;;;6488949;31;8899;-55
2023/06/30 16:21:25;;;;;;;;;5.75;5.75;;;;;;;;6489331;39;8938;-56
2023/06/30 16:27:27;;;;;;;;;6.25;5.50;;;;;;;;6488729;39;8921;-56
2023/06/30 16:33:30;;;;;;;;;9.00;8.00;;;;;;;;6488214;39;8836;-58
2023/06/30 16:39:34;;;;;;;;;7.75;7.75;;;;;;;;6488184;39;8944;-56
2023/06/30 16:45:38;;;;;;;;;8.00;8.00;;;;;;;;6487928;46;8916;-57
2023/06/30 16:51:42;;;;;;;;;8.25;8.25;;;;;;;;6487257;46;8908;-53
2023/06/30 16:57:44;;;;;;;;;10.00;7.75;;;;;;;;6488701;39;9536;-56
2023/06/30 17:03:47;;;;;;;;;6.00;6.00;;;;;;;;6488650;39;8917;-54
2023/06/30 17:09:49;;;;;;;;;7.50;7.50;;;;;;;;6489046;39;9030;-53
2023/06/30 17:15:52;;;;;;;;;9.75;9.75;;;;;;;;6487764;39;8987;-55
2023/06/30 17:21:54;;;;;;;;;13.00;12.00;;;;;;;;6488598;39;8949;-57
2023/06/30 17:27:58;;;;;;;;;10.75;10.75;;;;;;;;6486989;39;8913;-56
2023/06/30 17:34:01;;;;;;;;;8.75;8.75;;;;;;;;6487578;39;8896;-55
2023/06/30 17:40:04;;;;;;;;;7.75;7.75;;;;;;;;6488320;31;8948;-57
2023/06/30 17:46:07;;;;;;;;;10.00;8.75;;;;;;;;6487325;39;8872;-58
2023/06/30 17:52:09;;;;;;;;;10.00;10.00;;;;;;;;6487264;39;8881;-55
2023/06/30 17:58:11;;;;;;;;;10.75;10.75;;;;;;;;6486831;47;9087;-58
2023/06/30 18:04:14;;;;;;;;;14.00;13.00;;;;;;;;6488931;31;8937;-56
2023/06/30 18:10:17;;;;;;;;;17.25;15.50;;;;;;;;6488760;39;9006;-58
2023/06/30 18:16:19;;;;;;;;;19.75;19.00;;;;;;;;6488763;46;9000;-55
2023/06/30 18:22:25;;;;;;;;;14.00;14.00;;;;;;;;6488542;46;9061;-55
2023/06/30 18:28:28;;;;;;;;;14.50;14.00;;;;;;;;6488851;46;8932;-60
2023/06/30 18:34:30;;;;;;;;;12.75;12.00;;;;;;;;6489572;39;8836;-55
2023/06/30 18:40:34;;;;;;;;;19.00;18.50;;;;;;;;6489345;46;8893;-55
2023/06/30 18:46:38;;;;;;;;;20.50;20.00;;;;;;;;6488325;39;8856;-53
2023/06/30 18:52:42;;;;;;;;;28.00;26.33;;;;;;;;6487721;46;8889;-54
2023/06/30 18:58:45;;;;;;;;;26.25;26.00;;;;;;;;6489264;39;8958;-56
2023/06/30 19:04:47;;;;;;;;;26.00;25.50;;;;;;;;6487804;46;8992;-54
2023/06/30 19:10:51;;;;;;;;;27.75;26.25;;;;;;;;6489471;39;8900;-56
2023/06/30 19:16:55;;;;;;;;;30.00;26.25;;;;;;;;6488631;31;8877;-56
2023/06/30 19:22:58;;;;;;;;;27.00;25.75;;;;;;;;6489745;39;8875;-56
2023/06/30 19:29:02;;;;;;;;;21.75;18.75;;;;;;;;6487352;31;9580;-57
2023/06/30 19:35:05;;;;;;;;;17.25;16.50;;;;;;;;6488842;46;8831;-54
2023/06/30 19:41:08;;;;;;;;;16.00;16.00;;;;;;;;6488145;39;9599;-55
2023/06/30 19:47:14;;;;;;;;;19.00;18.50;;;;;;;;6488781;39;9034;-56
2023/06/30 19:53:16;;;;;;;;;23.00;21.75;;;;;;;;6489321;39;9642;-57
2023/06/30 19:59:19;;;;;;;;;19.50;19.50;;;;;;;;6487760;31;8923;-54
2023/06/30 20:05:21;;;;;;;;;21.50;21.00;;;;;;;;6487772;46;8912;-56
2023/06/30 20:11:24;;;;;;;;;24.00;21.50;;;;;;;;6488097;39;8927;-56
2023/06/30 20:17:29;;;;;;;;;17.75;17.75;;;;;;;;6487424;46;8888;-55
2023/06/30 20:23:31;;;;;;;;;26.75;25.25;;;;;;;;6488105;31;8991;-55
2023/06/30 20:29:34;;;;;;;;;28.00;25.50;;;;;;;;6486672;31;8957;-56
2023/06/30 20:35:36;;;;;;;;;26.25;25.50;;;;;;;;6487891;39;8884;-54
2023/06/30 20:41:40;;;;;;;;;25.75;24.25;;;;;;;;6487883;39;8857;-57
2023/06/30 20:47:42;;;;;;;;;25.75;23.75;;;;;;;;6488315;39;8872;-55
2023/06/30 20:53:44;;;;;;;;;23.25;22.50;;;;;;;;6488425;46;8868;-56
2023/06/30 20:59:48;;;;;;;;;24.67;24.33;;;;;;;;6486291;39;8932;-53
2023/06/30 21:05:50;;;;;;;;;27.50;24.75;;;;;;;;6488328;39;8909;-52
2023/06/30 21:11:54;;;;;;;;;21.75;21.75;;;;;;;;6489254;31;8897;-57
2023/06/30 21:17:56;;;;;;;;;24.00;23.33;;;;;;;;6487624;39;8928;-54
2023/06/30 21:23:58;;;;;;;;;26.33;24.33;;;;;;;;6487432;39;8836;-54
2023/06/30 21:30:01;;;;;;;;;27.50;23.75;;;;;;;;6486736;39;9485;-57
2023/06/30 21:36:05;;;;;;;;;26.33;25.33;;;;;;;;6486841;39;8868;-58
2023/06/30 21:42:08;;;;;;;;;25.67;24.00;;;;;;;;6488223;39;8896;-54
2023/06/30 21:48:12;;;;;;;;;25.00;22.00;;;;;;;;6487395;47;8898;-61
2023/06/30 21:54:16;;;;;;;;;25.67;25.67;;;;;;;;6488111;47;8869;-55
2023/06/30 22:00:44;;;;;;;;;27.00;24.00;;;;;;;;6487050;47;8903;-53
2023/06/30 22:06:47;;;;;;;;;24.33;22.00;;;;;;;;6487518;36;8891;-54
2023/06/30 22:12:51;;;;;;;;;24.33;24.00;;;;;;;;6487231;47;8936;-54
2023/06/30 22:18:54;;;;;;;;;25.50;25.25;;;;;;;;6487709;39;8993;-54
2023/06/30 22:24:56;;;;;;;;;22.67;21.33;;;;;;;;6486609;31;8886;-54
2023/06/30 22:30:59;;;;;;;;;29.00;28.67;;;;;;;;6487786;39;9563;-56
2023/06/30 22:37:02;;;;;;;;;26.00;24.67;;;;;;;;6485764;39;8882;-57
2023/06/30 22:43:06;;;;;;;;;24.67;23.67;;;;;;;;6487040;31;8902;-55
2023/06/30 22:49:08;;;;;;;;;27.33;23.67;;;;;;;;6488005;39;9564;-55
2023/06/30 22:55:12;;;;;;;;;23.00;23.00;;;;;;;;6489285;31;8871;-56
2023/06/30 23:01:16;;;;;;;;;25.00;25.00;;;;;;;;6488948;31;9482;-55
2023/06/30 23:07:19;;;;;;;;;25.00;22.33;;;;;;;;6489887;39;8909;-55
2023/06/30 23:13:22;;;;;;;;;24.67;23.00;;;;;;;;6489840;31;8884;-56
2023/06/30 23:19:27;;;;;;;;;22.33;22.33;;;;;;;;6489153;39;8861;-54
2023/06/30 23:25:33;;;;;;;;;22.00;22.00;;;;;;;;6488683;31;8900;-55
2023/06/30 23:31:38;;;;;;;;;21.67;21.67;;;;;;;;6488546;39;8899;-56
2023/06/30 23:37:40;;;;;;;;;22.67;20.00;;;;;;;;6488322;31;8978;-53
2023/06/30 23:43:42;;;;;;;;;26.33;25.33;;;;;;;;6489098;31;8900;-53
2023/06/30 23:49:46;;;;;;;;;26.33;25.67;;;;;;;;6488148;39;8879;-56
2023/06/30 23:55:49;;;;;;;;;28.67;26.67;;;;;;;;6489438;31;8881;-55
